ΕΜΥ, Εθνική Μετεωρολογική Υπηρεσία - Δελτία Καιρού, Προγνώσεις

ΑΕΡΟΝΑΥΤΙΛΙΑ

GREEK AIRPORTS CODES

LGTT 060700Z 06010KT CAVOK 27/17 Q1010=

EUROPEAN AIRPORTS CODES

TAF LGTT 060700Z 0609/0618 05012KT 9999 FEW025 TEMPO 0609/0618 FEW018TCU BKN030 PROB30 TEMPO 0612/0618 5000 SHRA FEW018CB BKN030 BECMG 0610/0612 20010KT=